Mission, Canada
Current Conditions -  °F | °C
As of 5:00 AM on Monday 22 Dec 2014 (Local Time) from CYXX Reporting Station
Clear Clear  
Wind Chill: 34°   Ceiling: Unl
Heat Index: 37°   Visibility: 10mi
Dew Point: 37°   Wind: 5mph
Humidity: 100%   Direction: 190°S
Pressure: 30.2"   Gusts: NA
Location:  49.13°N, 122.3°W
Report Text: CYXX 221300Z 19004KT 10SM SKC 03/03 A3020 RMK SLP227
Loading
Personal Weather Stations






























Interactive Weather Map New forecast layout! Learn more

10-Day Weather Forecast

Advertisements
Track Severe Weather on mobile